Orbital elements of FENGYUN 1C DEB
| Launched | 9 May 1999 |
| Flight ended | – |
| Launch site | Taiyuan Space Center, PRC |
| Owner | People's Republic of China |
| NORAD ID | 30735 |
| Date fetched |
Epoch osculation |
Inc. [°] |
Ecc. | RA asc node [hr] |
Arg Peri. [°] |
Mean anom [°] |
Mean motion [rev/day] |
Abs. mag |
| Date fetched |
Epoch osculation |
Inc. [°] |
Ecc. | RA asc node [hr] |
Arg Peri. [°] |
Mean anom [°] |
Mean motion [rev/day] |
Abs. mag |
| 2026 May 08 17:57 | 2026 May 05 10:56:42 | 98.7499 | 0.00607 | 13.4057 | 187.4815 | 301.8264 | 14.24936 | – |
| 2026 May 07 17:58 | 2026 May 05 10:56:42 | 98.7499 | 0.00607 | 13.4057 | 187.4815 | 301.8264 | 14.24936 | – |
| 2026 May 06 17:57 | 2026 May 05 10:56:42 | 98.7499 | 0.00607 | 13.4057 | 187.4815 | 301.8264 | 14.24936 | – |
| 2026 May 05 17:57 | 2026 May 05 10:56:42 | 98.7499 | 0.00607 | 13.4057 | 187.4815 | 301.8264 | 14.24936 | – |
| 2026 May 04 17:57 | 2026 Apr 30 04:04:54 | 98.7511 | 0.00601 | 13.0543 | 202.4937 | 301.8264 | 14.24936 | – |
| 2026 May 03 17:57 | 2026 Apr 30 04:04:54 | 98.7511 | 0.00601 | 13.0543 | 202.4937 | 301.8264 | 14.24936 | – |
| 2026 May 02 17:57 | 2026 Apr 30 04:04:54 | 98.7511 | 0.00601 | 13.0543 | 202.4937 | 301.8264 | 14.24936 | – |
| 2026 May 01 17:56 | 2026 Apr 30 04:04:54 | 98.7511 | 0.00601 | 13.0543 | 202.4937 | 301.8264 | 14.24936 | – |
| 2026 Apr 30 17:56 | 2026 Apr 30 04:04:54 | 98.7511 | 0.00601 | 13.0543 | 202.4937 | 301.8264 | 14.24936 | – |
| 2026 Apr 29 17:57 | 2026 Apr 22 04:04:37 | 98.7503 | 0.00591 | 12.5226 | 225.3715 | 301.8264 | 14.24936 | – |
| 2026 Apr 28 17:56 | 2026 Apr 22 04:04:37 | 98.7503 | 0.00591 | 12.5226 | 225.3715 | 301.8264 | 14.24936 | – |
| 2026 Apr 27 17:58 | 2026 Apr 22 04:04:37 | 98.7503 | 0.00591 | 12.5226 | 225.3715 | 301.8264 | 14.24936 | – |
| 2026 Apr 26 17:58 | 2026 Apr 22 04:04:37 | 98.7503 | 0.00591 | 12.5226 | 225.3715 | 301.8264 | 14.24936 | – |
| 2026 Apr 25 17:58 | 2026 Apr 22 04:04:37 | 98.7503 | 0.00591 | 12.5226 | 225.3715 | 301.8264 | 14.24936 | – |
| 2026 Apr 24 17:59 | 2026 Apr 22 04:04:37 | 98.7503 | 0.00591 | 12.5226 | 225.3715 | 301.8264 | 14.24936 | – |
| 2026 Apr 23 17:57 | 2026 Apr 19 03:29:16 | 98.7507 | 0.00588 | 12.3215 | 234.1956 | 301.8264 | 14.24936 | – |
| 2026 Apr 22 17:57 | 2026 Apr 19 03:29:16 | 98.7507 | 0.00588 | 12.3215 | 234.1956 | 301.8264 | 14.24936 | – |
| 2026 Apr 21 17:57 | 2026 Apr 19 03:29:16 | 98.7507 | 0.00588 | 12.3215 | 234.1956 | 301.8264 | 14.24936 | – |
| 2026 Apr 20 17:57 | 2026 Apr 19 03:29:16 | 98.7507 | 0.00588 | 12.3215 | 234.1956 | 301.8264 | 14.24936 | – |
| 2026 Apr 19 17:58 | 2026 Apr 19 03:29:16 | 98.7507 | 0.00588 | 12.3215 | 234.1956 | 301.8264 | 14.24936 | – |
| 2026 Apr 18 17:56 | 2026 Apr 12 23:51:29 | 98.7511 | 0.00582 | 11.9127 | 252.2273 | 301.8264 | 14.24936 | – |
| 2026 Apr 16 17:57 | 2026 Apr 12 23:51:29 | 98.7511 | 0.00582 | 11.9127 | 252.2273 | 301.8264 | 14.24936 | – |
| 2026 Apr 14 17:57 | 2026 Apr 12 23:51:29 | 98.7511 | 0.00582 | 11.9127 | 252.2273 | 301.8264 | 14.24936 | – |
| 2026 Apr 13 17:57 | 2026 Apr 12 23:51:29 | 98.7511 | 0.00582 | 11.9127 | 252.2273 | 301.8264 | 14.24936 | – |
| 2026 Apr 12 17:57 | 2026 Apr 07 15:41:15 | 98.7504 | 0.00576 | 11.5577 | 268.0145 | 301.8264 | 14.24936 | – |
| 2026 Apr 11 17:57 | 2026 Apr 07 15:41:15 | 98.7504 | 0.00576 | 11.5577 | 268.0145 | 301.8264 | 14.24936 | – |